Terminal Aerodrome Forecast
Issued by NWS

Home | Current Version | Previous Version | Text Only | Print | Product List | Glossary On
Versions: 1 2 3 4 5 6 7 8 9 10 11 12 13 14 15 16 17 18 19 20 21 22 23 24 25 26 27 28 29 30 31 32 33 34 35 36 37 38 39 40 41 42 43 44 45 46 47 48 49 50
000
FTUS45 KBOU 031733
TAFAPA
TAF
KAPA 031733Z 0318/0418 06007KT P6SM FEW080 BKN150 OVC200
     FM032100 07007KT P6SM VCTS SCT080CB OVC120
      TEMPO 0322/0402 VRB15G30KT -TSRA BKN060CB
     FM040300 01012KT P6SM -SHRA SCT040 BKN060
     FM040500 03009KT P6SM -SHRA SCT020 OVC040
     FM040800 05005KT 2SM -SHRA BR BKN008 OVC012
     FM041400 05006KT 5SM BR VCSH SCT010 BKN020=

USA.gov is the U.S. government's official web portal to all federal, state and local government web resources and services.